Bandon, OR

9:30 PM PDT on September 20, 2014 (GMT -0700)
KORBANDO2 | Change Station
CLOSE
Current Station
Personal Weather Station
Location: Bandon, OR
Elevation: 77 ft
Nearby Weather Stations

Elev 77 ft 43.12 °N, 124.43 °W | Updated 20 seconds ago

Fog
Fog
55.8 °F
Feels Like 55.8 °F
N
5.0
Wind Variable Wind from South
Gusts 5.0 mph

Today
High -- | Low -- °F
--% Chance of Precip.
Yesterday
High -- | Low -- °F
Precip. -- in
7:02 AM 7:18 PM
Waning Crescent, 9% visible
Pressure 29.91 in
Visibility 9.0 miles
Clouds Overcast 500 ft
Dew Point 55 °F
Humidity 97%
Rainfall 0.00 in
Snow Depth 0 in , 0 in , 0 in
UV 0 out of 12
Pollen 2.10 out of 12
Air Quality Not available.
Flu Activity Not available.
METAR KOTH 210355Z 00000KT 9SM OVC005 16/16 A2991 RMK AO1

More Conditions Fewer Conditions

Pressure 29.91 in
Visibility 9.0 miles
Clouds Overcast 500 ft
Dew Point 55 °F
Humidity 97%
Rainfall 0.00 in
Snow Depth 0 in , 0 in , 0 in
UV 0 out of 12
Pollen 2.10 out of 12
Air Quality Not available.
Flu Activity Not available.
METAR KOTH 210355Z 00000KT 9SM OVC005 16/16 A2991 RMK AO1

More Conditions Fewer Conditions

10-Day Weather Forecast

Almanac

Astronomy

Sep. 20, 2014 Rise Set
Actual Time 7:02 AM PDT 7:18 PM PDT
Civil Twilight 6:34 AM PDT 7:46 PM PDT
Nautical Twilight 6:00 AM PDT 8:20 PM PDT
Astronomical Twilight 5:26 AM PDT 8:54 PM PDT
Moon 3:43 AM PDT (9/20) 5:28 PM PDT (9/20)
Length of Visible Light 13h 12m
Length of Day
12h 15m
Tomorrow will be 2m 55s shorter.
Waning Crescent, 9% of the Moon is Illuminated
Sep 21
Waning Crescent
Sep 24
New
Oct 1
First Quarter
Oct 8
Full
Oct 15
Last Quarter

Today's Extremes

State Highs State Lows

Community

WunderPhotos

Upload Photos

1,755,081 photos uploaded!

Nearby

Snow Depth

Station Depth Elevation
Bowman Springs 0 in 4580 ft
Blue Mountain Spring 0 in 5900 ft
Diamond Lake 0 in 5315 ft
Hogg Pass 0 in 4760 ft
Irish Taylor 0 in 5500 ft

Earthquake Activity

City Distance Mag. Time & Date
No recent earthquake activity has been reported nearby.
Minimum magnitude displayed is 2.5.

Coastal Water Temperatures

Place Temperature
Port Orford, OR 55.0 °F
Charleston, OR 54.0 °F
South Beach, OR 54.0 °F

Nearby Weather Stations